sensor_id;sensor_type;location;lat;lon;timestamp;P1;durP1;ratioP1;P2;durP2;ratioP2
4555;SDS011;2290;48.674;9.018;2024-03-02T00:00:08;7.47;;;4.90;;
4555;SDS011;2290;48.674;9.018;2024-03-02T00:02:41;7.00;;;4.53;;
4555;SDS011;2290;48.674;9.018;2024-03-02T00:05:11;7.97;;;4.87;;
4555;SDS011;2290;48.674;9.018;2024-03-02T00:07:40;7.57;;;5.20;;
4555;SDS011;2290;48.674;9.018;2024-03-02T00:10:10;8.27;;;4.80;;
4555;SDS011;2290;48.674;9.018;2024-03-02T00:12:42;7.60;;;4.73;;
4555;SDS011;2290;48.674;9.018;2024-03-02T00:17:55;8.63;;;5.13;;
4555;SDS011;2290;48.674;9.018;2024-03-02T00:20:21;9.50;;;4.90;;
4555;SDS011;2290;48.674;9.018;2024-03-02T00:22:48;12.60;;;5.53;;
4555;SDS011;2290;48.674;9.018;2024-03-02T00:25:15;5.53;;;4.60;;
4555;SDS011;2290;48.674;9.018;2024-03-02T00:27:41;9.27;;;5.70;;
4555;SDS011;2290;48.674;9.018;2024-03-02T00:33:13;8.87;;;4.73;;
4555;SDS011;2290;48.674;9.018;2024-03-02T00:35:39;7.53;;;5.50;;
4555;SDS011;2290;48.674;9.018;2024-03-02T00:38:05;9.30;;;5.20;;
4555;SDS011;2290;48.674;9.018;2024-03-02T00:40:31;9.53;;;5.60;;
4555;SDS011;2290;48.674;9.018;2024-03-02T00:42:57;7.73;;;4.57;;
4555;SDS011;2290;48.674;9.018;2024-03-02T00:45:23;11.00;;;5.80;;
4555;SDS011;2290;48.674;9.018;2024-03-02T00:47:49;11.20;;;5.37;;
4555;SDS011;2290;48.674;9.018;2024-03-02T00:50:15;10.63;;;5.97;;
4555;SDS011;2290;48.674;9.018;2024-03-02T00:52:41;8.47;;;4.60;;
4555;SDS011;2290;48.674;9.018;2024-03-02T00:55:07;9.17;;;5.90;;
4555;SDS011;2290;48.674;9.018;2024-03-02T00:57:33;11.93;;;6.30;;
4555;SDS011;2290;48.674;9.018;2024-03-02T01:00:00;10.40;;;5.80;;
4555;SDS011;2290;48.674;9.018;2024-03-02T01:02:25;11.70;;;5.30;;
4555;SDS011;2290;48.674;9.018;2024-03-02T01:04:51;11.83;;;5.80;;
4555;SDS011;2290;48.674;9.018;2024-03-02T01:07:17;12.97;;;5.90;;
4555;SDS011;2290;48.674;9.018;2024-03-02T01:09:43;9.40;;;5.73;;
4555;SDS011;2290;48.674;9.018;2024-03-02T01:12:08;9.27;;;5.93;;
4555;SDS011;2290;48.674;9.018;2024-03-02T01:14:34;12.17;;;6.17;;
4555;SDS011;2290;48.674;9.018;2024-03-02T01:17:00;12.50;;;5.93;;
4555;SDS011;2290;48.674;9.018;2024-03-02T01:19:28;12.83;;;6.27;;
4555;SDS011;2290;48.674;9.018;2024-03-02T01:21:55;14.07;;;6.00;;
4555;SDS011;2290;48.674;9.018;2024-03-02T01:24:21;9.10;;;6.10;;
4555;SDS011;2290;48.674;9.018;2024-03-02T01:26:47;9.70;;;5.27;;
4555;SDS011;2290;48.674;9.018;2024-03-02T01:29:12;10.40;;;6.53;;
4555;SDS011;2290;48.674;9.018;2024-03-02T01:31:38;12.50;;;5.87;;
4555;SDS011;2290;48.674;9.018;2024-03-02T01:34:07;12.27;;;6.00;;
4555;SDS011;2290;48.674;9.018;2024-03-02T01:36:33;10.93;;;5.93;;
4555;SDS011;2290;48.674;9.018;2024-03-02T01:38:59;10.70;;;5.57;;
4555;SDS011;2290;48.674;9.018;2024-03-02T01:41:24;10.30;;;6.20;;
4555;SDS011;2290;48.674;9.018;2024-03-02T01:43:50;13.40;;;6.77;;
4555;SDS011;2290;48.674;9.018;2024-03-02T01:46:17;12.43;;;6.57;;
4555;SDS011;2290;48.674;9.018;2024-03-02T01:48:43;11.47;;;6.33;;
4555;SDS011;2290;48.674;9.018;2024-03-02T01:51:08;11.70;;;6.40;;
4555;SDS011;2290;48.674;9.018;2024-03-02T01:53:35;11.37;;;6.90;;
4555;SDS011;2290;48.674;9.018;2024-03-02T01:56:01;11.77;;;6.50;;
4555;SDS011;2290;48.674;9.018;2024-03-02T01:58:27;11.07;;;6.90;;
4555;SDS011;2290;48.674;9.018;2024-03-02T02:00:52;12.80;;;6.40;;
4555;SDS011;2290;48.674;9.018;2024-03-02T02:03:18;11.77;;;6.10;;
4555;SDS011;2290;48.674;9.018;2024-03-02T02:05:44;11.57;;;6.03;;
4555;SDS011;2290;48.674;9.018;2024-03-02T02:08:10;12.93;;;7.03;;
4555;SDS011;2290;48.674;9.018;2024-03-02T02:10:36;11.30;;;6.47;;
4555;SDS011;2290;48.674;9.018;2024-03-02T02:13:01;8.73;;;5.33;;
4555;SDS011;2290;48.674;9.018;2024-03-02T02:15:28;13.13;;;6.17;;
4555;SDS011;2290;48.674;9.018;2024-03-02T02:17:55;12.47;;;6.63;;
4555;SDS011;2290;48.674;9.018;2024-03-02T02:20:21;12.80;;;6.47;;
4555;SDS011;2290;48.674;9.018;2024-03-02T02:22:59;12.87;;;6.67;;
4555;SDS011;2290;48.674;9.018;2024-03-02T02:25:27;12.60;;;6.53;;
4555;SDS011;2290;48.674;9.018;2024-03-02T02:27:53;12.23;;;6.50;;
4555;SDS011;2290;48.674;9.018;2024-03-02T02:30:24;9.70;;;5.93;;
4555;SDS011;2290;48.674;9.018;2024-03-02T02:32:51;9.70;;;5.67;;
4555;SDS011;2290;48.674;9.018;2024-03-02T02:35:16;10.53;;;6.27;;
4555;SDS011;2290;48.674;9.018;2024-03-02T02:37:43;10.20;;;5.90;;
4555;SDS011;2290;48.674;9.018;2024-03-02T02:40:10;12.13;;;5.47;;
4555;SDS011;2290;48.674;9.018;2024-03-02T02:42:37;9.67;;;5.67;;
4555;SDS011;2290;48.674;9.018;2024-03-02T02:45:05;12.53;;;6.27;;
4555;SDS011;2290;48.674;9.018;2024-03-02T02:47:31;9.13;;;5.93;;
4555;SDS011;2290;48.674;9.018;2024-03-02T02:50:00;11.53;;;6.47;;
4555;SDS011;2290;48.674;9.018;2024-03-02T02:52:31;11.47;;;6.07;;
4555;SDS011;2290;48.674;9.018;2024-03-02T02:54:58;14.00;;;6.63;;
4555;SDS011;2290;48.674;9.018;2024-03-02T02:57:24;11.10;;;6.07;;
4555;SDS011;2290;48.674;9.018;2024-03-02T02:59:49;10.57;;;6.10;;
4555;SDS011;2290;48.674;9.018;2024-03-02T03:02:15;9.20;;;6.20;;
4555;SDS011;2290;48.674;9.018;2024-03-02T03:04:40;11.30;;;5.67;;
4555;SDS011;2290;48.674;9.018;2024-03-02T03:07:06;9.50;;;6.00;;
4555;SDS011;2290;48.674;9.018;2024-03-02T03:09:32;13.33;;;6.30;;
4555;SDS011;2290;48.674;9.018;2024-03-02T03:11:57;10.97;;;5.97;;
4555;SDS011;2290;48.674;9.018;2024-03-02T03:14:23;12.03;;;6.87;;
4555;SDS011;2290;48.674;9.018;2024-03-02T03:16:48;10.63;;;5.90;;
4555;SDS011;2290;48.674;9.018;2024-03-02T03:19:15;11.20;;;6.53;;
4555;SDS011;2290;48.674;9.018;2024-03-02T03:21:40;10.50;;;6.47;;
4555;SDS011;2290;48.674;9.018;2024-03-02T03:24:08;10.73;;;5.80;;
4555;SDS011;2290;48.674;9.018;2024-03-02T03:26:35;14.63;;;6.50;;
4555;SDS011;2290;48.674;9.018;2024-03-02T03:29:01;13.17;;;7.23;;
4555;SDS011;2290;48.674;9.018;2024-03-02T03:31:27;10.70;;;6.07;;
4555;SDS011;2290;48.674;9.018;2024-03-02T03:33:53;12.40;;;6.10;;
4555;SDS011;2290;48.674;9.018;2024-03-02T03:36:19;12.63;;;6.50;;
4555;SDS011;2290;48.674;9.018;2024-03-02T03:38:44;9.67;;;5.60;;
4555;SDS011;2290;48.674;9.018;2024-03-02T03:41:10;11.80;;;6.00;;
4555;SDS011;2290;48.674;9.018;2024-03-02T03:43:35;9.23;;;5.53;;
4555;SDS011;2290;48.674;9.018;2024-03-02T03:46:01;12.80;;;6.50;;
4555;SDS011;2290;48.674;9.018;2024-03-02T03:48:27;11.37;;;6.17;;
4555;SDS011;2290;48.674;9.018;2024-03-02T03:50:55;10.20;;;5.83;;
4555;SDS011;2290;48.674;9.018;2024-03-02T03:53:21;10.20;;;5.57;;
4555;SDS011;2290;48.674;9.018;2024-03-02T03:55:47;11.50;;;5.97;;
4555;SDS011;2290;48.674;9.018;2024-03-02T03:58:14;11.87;;;6.33;;
4555;SDS011;2290;48.674;9.018;2024-03-02T04:00:41;10.33;;;6.30;;
4555;SDS011;2290;48.674;9.018;2024-03-02T04:03:07;10.27;;;5.70;;
4555;SDS011;2290;48.674;9.018;2024-03-02T04:05:33;10.87;;;5.70;;
4555;SDS011;2290;48.674;9.018;2024-03-02T04:07:58;13.30;;;5.70;;
4555;SDS011;2290;48.674;9.018;2024-03-02T04:10:25;11.53;;;6.00;;
4555;SDS011;2290;48.674;9.018;2024-03-02T04:12:50;8.20;;;5.00;;
4555;SDS011;2290;48.674;9.018;2024-03-02T04:15:16;9.17;;;5.60;;
4555;SDS011;2290;48.674;9.018;2024-03-02T04:17:43;10.73;;;5.13;;
4555;SDS011;2290;48.674;9.018;2024-03-02T04:20:09;9.40;;;4.90;;
4555;SDS011;2290;48.674;9.018;2024-03-02T04:22:35;11.23;;;5.87;;
4555;SDS011;2290;48.674;9.018;2024-03-02T04:25:01;9.03;;;5.03;;
4555;SDS011;2290;48.674;9.018;2024-03-02T04:27:27;10.83;;;5.60;;
4555;SDS011;2290;48.674;9.018;2024-03-02T04:29:52;13.83;;;5.80;;
4555;SDS011;2290;48.674;9.018;2024-03-02T04:32:18;10.10;;;5.37;;
4555;SDS011;2290;48.674;9.018;2024-03-02T04:34:45;8.30;;;4.73;;
4555;SDS011;2290;48.674;9.018;2024-03-02T04:37:10;9.30;;;5.33;;
4555;SDS011;2290;48.674;9.018;2024-03-02T04:39:37;7.90;;;4.50;;
4555;SDS011;2290;48.674;9.018;2024-03-02T04:42:03;11.53;;;6.00;;
4555;SDS011;2290;48.674;9.018;2024-03-02T04:44:28;8.50;;;5.13;;
4555;SDS011;2290;48.674;9.018;2024-03-02T04:46:54;9.50;;;5.57;;
4555;SDS011;2290;48.674;9.018;2024-03-02T04:49:20;9.73;;;5.50;;
4555;SDS011;2290;48.674;9.018;2024-03-02T04:51:45;10.57;;;5.20;;
4555;SDS011;2290;48.674;9.018;2024-03-02T04:54:11;10.10;;;5.20;;
4555;SDS011;2290;48.674;9.018;2024-03-02T04:56:39;9.63;;;5.10;;
4555;SDS011;2290;48.674;9.018;2024-03-02T04:59:14;12.00;;;5.60;;
4555;SDS011;2290;48.674;9.018;2024-03-02T05:01:44;10.60;;;5.10;;
4555;SDS011;2290;48.674;9.018;2024-03-02T05:04:10;10.13;;;5.93;;
4555;SDS011;2290;48.674;9.018;2024-03-02T05:06:37;10.57;;;5.30;;
4555;SDS011;2290;48.674;9.018;2024-03-02T05:09:04;9.83;;;5.10;;
4555;SDS011;2290;48.674;9.018;2024-03-02T05:11:30;8.77;;;5.30;;
4555;SDS011;2290;48.674;9.018;2024-03-02T05:14:05;9.80;;;4.73;;
4555;SDS011;2290;48.674;9.018;2024-03-02T05:16:36;11.17;;;5.30;;
4555;SDS011;2290;48.674;9.018;2024-03-02T05:19:03;8.30;;;4.83;;
4555;SDS011;2290;48.674;9.018;2024-03-02T05:21:31;9.70;;;5.03;;
4555;SDS011;2290;48.674;9.018;2024-03-02T05:23:57;9.37;;;5.00;;
4555;SDS011;2290;48.674;9.018;2024-03-02T05:26:23;11.00;;;6.23;;
4555;SDS011;2290;48.674;9.018;2024-03-02T05:28:48;11.80;;;6.43;;
4555;SDS011;2290;48.674;9.018;2024-03-02T05:31:14;12.23;;;5.97;;
4555;SDS011;2290;48.674;9.018;2024-03-02T05:33:40;9.23;;;4.80;;
4555;SDS011;2290;48.674;9.018;2024-03-02T05:36:06;10.83;;;5.40;;
4555;SDS011;2290;48.674;9.018;2024-03-02T05:38:32;10.07;;;5.70;;
4555;SDS011;2290;48.674;9.018;2024-03-02T05:40:59;9.63;;;5.03;;
4555;SDS011;2290;48.674;9.018;2024-03-02T05:43:25;9.20;;;5.40;;
4555;SDS011;2290;48.674;9.018;2024-03-02T05:45:51;11.40;;;5.50;;
4555;SDS011;2290;48.674;9.018;2024-03-02T05:48:16;11.50;;;5.60;;
4555;SDS011;2290;48.674;9.018;2024-03-02T05:50:42;11.00;;;5.87;;
4555;SDS011;2290;48.674;9.018;2024-03-02T05:53:07;10.30;;;5.03;;
4555;SDS011;2290;48.674;9.018;2024-03-02T05:55:33;9.33;;;5.87;;
4555;SDS011;2290;48.674;9.018;2024-03-02T05:57:58;10.83;;;4.93;;
4555;SDS011;2290;48.674;9.018;2024-03-02T06:00:42;8.10;;;5.23;;
4555;SDS011;2290;48.674;9.018;2024-03-02T06:03:08;9.77;;;5.17;;
4555;SDS011;2290;48.674;9.018;2024-03-02T06:05:34;9.87;;;5.33;;
4555;SDS011;2290;48.674;9.018;2024-03-02T06:08:00;12.87;;;6.07;;
4555;SDS011;2290;48.674;9.018;2024-03-02T06:10:25;11.27;;;5.97;;
4555;SDS011;2290;48.674;9.018;2024-03-02T06:12:52;14.00;;;5.83;;
4555;SDS011;2290;48.674;9.018;2024-03-02T06:15:17;9.63;;;4.90;;
4555;SDS011;2290;48.674;9.018;2024-03-02T06:17:43;10.60;;;5.93;;
4555;SDS011;2290;48.674;9.018;2024-03-02T06:20:09;9.27;;;5.90;;
4555;SDS011;2290;48.674;9.018;2024-03-02T06:22:35;11.10;;;5.63;;
4555;SDS011;2290;48.674;9.018;2024-03-02T06:25:01;9.43;;;5.40;;
4555;SDS011;2290;48.674;9.018;2024-03-02T06:27:26;10.77;;;5.53;;
4555;SDS011;2290;48.674;9.018;2024-03-02T06:29:52;10.00;;;5.07;;
4555;SDS011;2290;48.674;9.018;2024-03-02T06:32:18;9.83;;;5.40;;
4555;SDS011;2290;48.674;9.018;2024-03-02T06:34:43;10.33;;;5.90;;
4555;SDS011;2290;48.674;9.018;2024-03-02T06:37:09;9.50;;;5.47;;
4555;SDS011;2290;48.674;9.018;2024-03-02T06:39:35;8.87;;;5.50;;
4555;SDS011;2290;48.674;9.018;2024-03-02T06:42:01;10.60;;;5.70;;
4555;SDS011;2290;48.674;9.018;2024-03-02T06:44:26;10.70;;;5.90;;
4555;SDS011;2290;48.674;9.018;2024-03-02T06:46:52;11.80;;;6.20;;
4555;SDS011;2290;48.674;9.018;2024-03-02T06:49:17;10.80;;;6.37;;
4555;SDS011;2290;48.674;9.018;2024-03-02T06:51:43;11.50;;;6.17;;
4555;SDS011;2290;48.674;9.018;2024-03-02T06:54:09;11.50;;;6.33;;
4555;SDS011;2290;48.674;9.018;2024-03-02T06:56:35;12.37;;;5.80;;
4555;SDS011;2290;48.674;9.018;2024-03-02T06:59:00;13.07;;;6.50;;
4555;SDS011;2290;48.674;9.018;2024-03-02T07:01:26;10.67;;;5.80;;
4555;SDS011;2290;48.674;9.018;2024-03-02T07:03:53;10.60;;;6.40;;
4555;SDS011;2290;48.674;9.018;2024-03-02T07:06:18;10.20;;;5.70;;
4555;SDS011;2290;48.674;9.018;2024-03-02T07:08:44;10.37;;;5.77;;
4555;SDS011;2290;48.674;9.018;2024-03-02T07:11:09;10.90;;;6.20;;
4555;SDS011;2290;48.674;9.018;2024-03-02T07:13:35;11.53;;;6.30;;
4555;SDS011;2290;48.674;9.018;2024-03-02T07:16:00;12.20;;;6.17;;
4555;SDS011;2290;48.674;9.018;2024-03-02T07:18:31;13.17;;;6.20;;
4555;SDS011;2290;48.674;9.018;2024-03-02T07:20:58;11.17;;;6.50;;
4555;SDS011;2290;48.674;9.018;2024-03-02T07:23:25;13.83;;;7.07;;
4555;SDS011;2290;48.674;9.018;2024-03-02T07:25:55;11.10;;;5.27;;
4555;SDS011;2290;48.674;9.018;2024-03-02T07:28:21;10.77;;;6.23;;
4555;SDS011;2290;48.674;9.018;2024-03-02T07:30:47;12.00;;;5.83;;
4555;SDS011;2290;48.674;9.018;2024-03-02T07:33:23;9.53;;;5.87;;
4555;SDS011;2290;48.674;9.018;2024-03-02T07:35:49;11.10;;;5.47;;
4555;SDS011;2290;48.674;9.018;2024-03-02T07:38:15;8.93;;;5.40;;
4555;SDS011;2290;48.674;9.018;2024-03-02T07:40:40;11.20;;;5.10;;
4555;SDS011;2290;48.674;9.018;2024-03-02T07:43:07;10.60;;;4.90;;
4555;SDS011;2290;48.674;9.018;2024-03-02T07:45:33;9.47;;;5.80;;
4555;SDS011;2290;48.674;9.018;2024-03-02T07:48:01;8.90;;;5.50;;
4555;SDS011;2290;48.674;9.018;2024-03-02T07:50:28;9.40;;;5.17;;
4555;SDS011;2290;48.674;9.018;2024-03-02T07:52:54;10.60;;;5.77;;
4555;SDS011;2290;48.674;9.018;2024-03-02T07:55:19;10.87;;;5.70;;
4555;SDS011;2290;48.674;9.018;2024-03-02T07:57:45;8.10;;;4.97;;
4555;SDS011;2290;48.674;9.018;2024-03-02T08:00:10;10.67;;;6.27;;
4555;SDS011;2290;48.674;9.018;2024-03-02T08:02:36;10.40;;;5.30;;
4555;SDS011;2290;48.674;9.018;2024-03-02T08:05:02;11.17;;;5.40;;
4555;SDS011;2290;48.674;9.018;2024-03-02T08:07:27;10.20;;;4.73;;
4555;SDS011;2290;48.674;9.018;2024-03-02T08:09:53;8.40;;;4.77;;
4555;SDS011;2290;48.674;9.018;2024-03-02T08:12:19;7.47;;;4.40;;
4555;SDS011;2290;48.674;9.018;2024-03-02T08:14:46;7.87;;;5.03;;
4555;SDS011;2290;48.674;9.018;2024-03-02T08:17:12;8.80;;;4.60;;
4555;SDS011;2290;48.674;9.018;2024-03-02T08:19:37;6.50;;;4.20;;
4555;SDS011;2290;48.674;9.018;2024-03-02T08:22:03;8.20;;;4.30;;
4555;SDS011;2290;48.674;9.018;2024-03-02T08:24:29;8.80;;;4.97;;
4555;SDS011;2290;48.674;9.018;2024-03-02T08:26:54;6.87;;;4.60;;
4555;SDS011;2290;48.674;9.018;2024-03-02T08:29:20;8.83;;;4.97;;
4555;SDS011;2290;48.674;9.018;2024-03-02T08:31:45;9.73;;;4.00;;
4555;SDS011;2290;48.674;9.018;2024-03-02T08:34:11;5.40;;;3.73;;
4555;SDS011;2290;48.674;9.018;2024-03-02T08:36:36;8.50;;;4.60;;
4555;SDS011;2290;48.674;9.018;2024-03-02T08:39:03;9.47;;;5.20;;
4555;SDS011;2290;48.674;9.018;2024-03-02T08:41:32;7.33;;;3.50;;
4555;SDS011;2290;48.674;9.018;2024-03-02T08:43:58;9.43;;;4.37;;
4555;SDS011;2290;48.674;9.018;2024-03-02T08:46:23;5.30;;;3.90;;
4555;SDS011;2290;48.674;9.018;2024-03-02T08:48:49;5.73;;;3.60;;
4555;SDS011;2290;48.674;9.018;2024-03-02T08:51:14;8.60;;;4.03;;
4555;SDS011;2290;48.674;9.018;2024-03-02T08:53:40;7.57;;;4.50;;
4555;SDS011;2290;48.674;9.018;2024-03-02T08:56:07;6.50;;;3.83;;
4555;SDS011;2290;48.674;9.018;2024-03-02T08:58:33;6.10;;;4.20;;
4555;SDS011;2290;48.674;9.018;2024-03-02T09:00:58;8.37;;;3.90;;
4555;SDS011;2290;48.674;9.018;2024-03-02T09:03:24;6.67;;;3.70;;
4555;SDS011;2290;48.674;9.018;2024-03-02T09:05:49;5.03;;;3.83;;
4555;SDS011;2290;48.674;9.018;2024-03-02T09:08:15;6.23;;;3.83;;
4555;SDS011;2290;48.674;9.018;2024-03-02T09:10:41;6.63;;;3.70;;
4555;SDS011;2290;48.674;9.018;2024-03-02T09:13:07;6.20;;;3.70;;
4555;SDS011;2290;48.674;9.018;2024-03-02T09:15:32;5.33;;;3.73;;
4555;SDS011;2290;48.674;9.018;2024-03-02T09:17:58;6.93;;;4.00;;
4555;SDS011;2290;48.674;9.018;2024-03-02T09:20:23;5.90;;;3.30;;
4555;SDS011;2290;48.674;9.018;2024-03-02T09:22:49;7.63;;;3.60;;
4555;SDS011;2290;48.674;9.018;2024-03-02T09:25:14;5.10;;;3.33;;
4555;SDS011;2290;48.674;9.018;2024-03-02T09:27:41;7.47;;;4.20;;
4555;SDS011;2290;48.674;9.018;2024-03-02T09:30:09;7.50;;;3.20;;
4555;SDS011;2290;48.674;9.018;2024-03-02T09:32:36;4.30;;;2.80;;
4555;SDS011;2290;48.674;9.018;2024-03-02T09:35:02;5.13;;;3.40;;
4555;SDS011;2290;48.674;9.018;2024-03-02T09:37:28;6.27;;;4.07;;
4555;SDS011;2290;48.674;9.018;2024-03-02T09:39:53;3.40;;;2.67;;
4555;SDS011;2290;48.674;9.018;2024-03-02T09:42:19;3.47;;;2.37;;
4555;SDS011;2290;48.674;9.018;2024-03-02T09:44:45;3.30;;;2.60;;
4555;SDS011;2290;48.674;9.018;2024-03-02T09:47:12;3.80;;;2.70;;
4555;SDS011;2290;48.674;9.018;2024-03-02T09:49:38;3.53;;;2.57;;
4555;SDS011;2290;48.674;9.018;2024-03-02T09:52:04;4.50;;;2.70;;
4555;SDS011;2290;48.674;9.018;2024-03-02T09:54:30;6.33;;;2.90;;
4555;SDS011;2290;48.674;9.018;2024-03-02T09:56:56;3.50;;;2.50;;
4555;SDS011;2290;48.674;9.018;2024-03-02T09:59:21;3.73;;;2.90;;
4555;SDS011;2290;48.674;9.018;2024-03-02T10:04:26;4.00;;;2.60;;
4555;SDS011;2290;48.674;9.018;2024-03-02T10:07:01;4.10;;;2.70;;
4555;SDS011;2290;48.674;9.018;2024-03-02T10:09:38;2.43;;;2.13;;
4555;SDS011;2290;48.674;9.018;2024-03-02T10:12:04;3.00;;;1.87;;
4555;SDS011;2290;48.674;9.018;2024-03-02T10:14:31;3.20;;;2.00;;
4555;SDS011;2290;48.674;9.018;2024-03-02T10:17:01;4.50;;;2.40;;
4555;SDS011;2290;48.674;9.018;2024-03-02T10:19:29;4.77;;;2.17;;
4555;SDS011;2290;48.674;9.018;2024-03-02T10:21:59;3.43;;;2.53;;
4555;SDS011;2290;48.674;9.018;2024-03-02T10:24:26;3.73;;;2.03;;
4555;SDS011;2290;48.674;9.018;2024-03-02T10:26:52;2.10;;;1.60;;
4555;SDS011;2290;48.674;9.018;2024-03-02T10:29:18;3.63;;;2.33;;
4555;SDS011;2290;48.674;9.018;2024-03-02T10:31:46;2.57;;;2.07;;
4555;SDS011;2290;48.674;9.018;2024-03-02T10:34:12;2.43;;;1.70;;
4555;SDS011;2290;48.674;9.018;2024-03-02T10:36:40;2.13;;;1.60;;
4555;SDS011;2290;48.674;9.018;2024-03-02T10:39:07;1.73;;;1.40;;
4555;SDS011;2290;48.674;9.018;2024-03-02T10:41:33;2.37;;;1.57;;
4555;SDS011;2290;48.674;9.018;2024-03-02T10:44:04;3.70;;;1.23;;
4555;SDS011;2290;48.674;9.018;2024-03-02T10:46:35;1.37;;;1.20;;
4555;SDS011;2290;48.674;9.018;2024-03-02T10:49:02;1.87;;;1.30;;
4555;SDS011;2290;48.674;9.018;2024-03-02T10:51:29;1.70;;;1.53;;
4555;SDS011;2290;48.674;9.018;2024-03-02T10:54:00;1.97;;;1.40;;
4555;SDS011;2290;48.674;9.018;2024-03-02T10:56:47;1.60;;;1.30;;
4555;SDS011;2290;48.674;9.018;2024-03-02T10:59:24;1.73;;;1.23;;
4555;SDS011;2290;48.674;9.018;2024-03-02T11:01:59;1.53;;;1.20;;
4555;SDS011;2290;48.674;9.018;2024-03-02T11:04:27;1.70;;;1.40;;
4555;SDS011;2290;48.674;9.018;2024-03-02T11:07:27;1.40;;;1.20;;
4555;SDS011;2290;48.674;9.018;2024-03-02T11:10:20;2.03;;;1.60;;
4555;SDS011;2290;48.674;9.018;2024-03-02T11:12:43;3.17;;;1.50;;
4555;SDS011;2290;48.674;9.018;2024-03-02T11:15:21;1.40;;;1.27;;
4555;SDS011;2290;48.674;9.018;2024-03-02T11:17:51;1.20;;;1.00;;
4555;SDS011;2290;48.674;9.018;2024-03-02T11:20:17;1.97;;;1.30;;
4555;SDS011;2290;48.674;9.018;2024-03-02T11:22:44;1.43;;;1.20;;
4555;SDS011;2290;48.674;9.018;2024-03-02T11:25:22;3.40;;;1.30;;
4555;SDS011;2290;48.674;9.018;2024-03-02T11:33:03;1.30;;;1.10;;
4555;SDS011;2290;48.674;9.018;2024-03-02T11:35:32;1.33;;;1.10;;
4555;SDS011;2290;48.674;9.018;2024-03-02T11:38:01;1.40;;;1.30;;
4555;SDS011;2290;48.674;9.018;2024-03-02T11:40:30;1.53;;;1.37;;
4555;SDS011;2290;48.674;9.018;2024-03-02T11:42:59;2.03;;;1.10;;
4555;SDS011;2290;48.674;9.018;2024-03-02T11:45:28;1.47;;;1.37;;
4555;SDS011;2290;48.674;9.018;2024-03-02T11:47:57;2.17;;;1.20;;
4555;SDS011;2290;48.674;9.018;2024-03-02T11:50:29;1.30;;;1.10;;
4555;SDS011;2290;48.674;9.018;2024-03-02T11:52:55;1.13;;;0.97;;
4555;SDS011;2290;48.674;9.018;2024-03-02T11:55:23;1.20;;;1.10;;
4555;SDS011;2290;48.674;9.018;2024-03-02T11:57:50;1.67;;;1.10;;
4555;SDS011;2290;48.674;9.018;2024-03-02T12:00:18;1.43;;;1.20;;
4555;SDS011;2290;48.674;9.018;2024-03-02T12:02:45;1.53;;;1.30;;
4555;SDS011;2290;48.674;9.018;2024-03-02T12:05:14;1.10;;;1.00;;
4555;SDS011;2290;48.674;9.018;2024-03-02T12:07:41;1.33;;;1.20;;
4555;SDS011;2290;48.674;9.018;2024-03-02T12:10:08;1.83;;;1.30;;
4555;SDS011;2290;48.674;9.018;2024-03-02T12:12:35;2.20;;;1.40;;
4555;SDS011;2290;48.674;9.018;2024-03-02T12:15:01;1.30;;;1.20;;
4555;SDS011;2290;48.674;9.018;2024-03-02T12:17:28;1.30;;;1.20;;
4555;SDS011;2290;48.674;9.018;2024-03-02T12:19:54;1.10;;;1.00;;
4555;SDS011;2290;48.674;9.018;2024-03-02T12:22:19;1.20;;;1.10;;
4555;SDS011;2290;48.674;9.018;2024-03-02T12:24:46;1.20;;;1.10;;
4555;SDS011;2290;48.674;9.018;2024-03-02T12:27:12;2.50;;;1.10;;
4555;SDS011;2290;48.674;9.018;2024-03-02T12:29:40;1.50;;;1.20;;
4555;SDS011;2290;48.674;9.018;2024-03-02T12:32:06;1.47;;;1.37;;
4555;SDS011;2290;48.674;9.018;2024-03-02T12:34:32;1.47;;;1.20;;
4555;SDS011;2290;48.674;9.018;2024-03-02T12:36:59;1.30;;;1.10;;
4555;SDS011;2290;48.674;9.018;2024-03-02T12:39:25;2.37;;;1.40;;
4555;SDS011;2290;48.674;9.018;2024-03-02T12:41:52;1.23;;;1.13;;
4555;SDS011;2290;48.674;9.018;2024-03-02T12:44:18;1.50;;;1.40;;
4555;SDS011;2290;48.674;9.018;2024-03-02T12:46:45;1.50;;;1.30;;
4555;SDS011;2290;48.674;9.018;2024-03-02T12:49:12;1.37;;;1.27;;
4555;SDS011;2290;48.674;9.018;2024-03-02T12:51:39;1.17;;;1.00;;
4555;SDS011;2290;48.674;9.018;2024-03-02T12:54:09;1.83;;;1.30;;
4555;SDS011;2290;48.674;9.018;2024-03-02T12:56:38;1.60;;;1.33;;
4555;SDS011;2290;48.674;9.018;2024-03-02T12:59:10;1.60;;;1.23;;
4555;SDS011;2290;48.674;9.018;2024-03-02T13:01:55;1.27;;;1.00;;
4555;SDS011;2290;48.674;9.018;2024-03-02T13:06:49;2.97;;;1.00;;
4555;SDS011;2290;48.674;9.018;2024-03-02T13:09:16;1.40;;;1.03;;
4555;SDS011;2290;48.674;9.018;2024-03-02T13:11:42;1.10;;;0.87;;
4555;SDS011;2290;48.674;9.018;2024-03-02T13:14:07;1.50;;;1.10;;
4555;SDS011;2290;48.674;9.018;2024-03-02T13:16:38;1.13;;;1.03;;
4555;SDS011;2290;48.674;9.018;2024-03-02T13:19:11;1.60;;;1.00;;
4555;SDS011;2290;48.674;9.018;2024-03-02T13:21:37;1.30;;;1.07;;
4555;SDS011;2290;48.674;9.018;2024-03-02T13:24:02;1.20;;;1.03;;
4555;SDS011;2290;48.674;9.018;2024-03-02T13:26:29;1.13;;;1.00;;
4555;SDS011;2290;48.674;9.018;2024-03-02T13:28:54;1.20;;;1.10;;
4555;SDS011;2290;48.674;9.018;2024-03-02T13:31:20;1.00;;;0.90;;
4555;SDS011;2290;48.674;9.018;2024-03-02T13:33:46;1.40;;;1.10;;
4555;SDS011;2290;48.674;9.018;2024-03-02T13:36:11;2.50;;;1.23;;
4555;SDS011;2290;48.674;9.018;2024-03-02T13:38:37;1.20;;;1.00;;
4555;SDS011;2290;48.674;9.018;2024-03-02T13:41:03;1.20;;;1.10;;
4555;SDS011;2290;48.674;9.018;2024-03-02T13:43:29;2.43;;;1.20;;
4555;SDS011;2290;48.674;9.018;2024-03-02T13:45:57;1.07;;;0.97;;
4555;SDS011;2290;48.674;9.018;2024-03-02T13:48:23;1.63;;;1.33;;
4555;SDS011;2290;48.674;9.018;2024-03-02T13:50:51;1.83;;;1.10;;
4555;SDS011;2290;48.674;9.018;2024-03-02T13:53:19;1.60;;;1.17;;
4555;SDS011;2290;48.674;9.018;2024-03-02T13:55:45;1.80;;;1.30;;
4555;SDS011;2290;48.674;9.018;2024-03-02T13:58:11;1.50;;;1.23;;
4555;SDS011;2290;48.674;9.018;2024-03-02T14:00:37;2.07;;;1.20;;
4555;SDS011;2290;48.674;9.018;2024-03-02T14:03:04;1.70;;;1.10;;
4555;SDS011;2290;48.674;9.018;2024-03-02T14:05:31;2.57;;;1.40;;
4555;SDS011;2290;48.674;9.018;2024-03-02T14:07:57;1.60;;;1.20;;
4555;SDS011;2290;48.674;9.018;2024-03-02T14:10:23;2.80;;;1.33;;
4555;SDS011;2290;48.674;9.018;2024-03-02T14:12:49;1.50;;;1.23;;
4555;SDS011;2290;48.674;9.018;2024-03-02T14:15:15;1.23;;;1.13;;
4555;SDS011;2290;48.674;9.018;2024-03-02T14:17:40;1.57;;;1.30;;
4555;SDS011;2290;48.674;9.018;2024-03-02T14:20:06;1.33;;;1.23;;
4555;SDS011;2290;48.674;9.018;2024-03-02T14:22:32;1.93;;;1.27;;
4555;SDS011;2290;48.674;9.018;2024-03-02T14:24:59;2.67;;;1.30;;
4555;SDS011;2290;48.674;9.018;2024-03-02T14:27:24;1.43;;;1.20;;
4555;SDS011;2290;48.674;9.018;2024-03-02T14:29:50;1.33;;;1.13;;
4555;SDS011;2290;48.674;9.018;2024-03-02T14:32:16;1.70;;;1.30;;
4555;SDS011;2290;48.674;9.018;2024-03-02T14:34:41;1.50;;;1.20;;
4555;SDS011;2290;48.674;9.018;2024-03-02T14:37:11;1.93;;;1.30;;
4555;SDS011;2290;48.674;9.018;2024-03-02T14:39:38;2.40;;;1.40;;
4555;SDS011;2290;48.674;9.018;2024-03-02T14:42:04;1.50;;;1.40;;
4555;SDS011;2290;48.674;9.018;2024-03-02T14:44:31;1.70;;;1.53;;
4555;SDS011;2290;48.674;9.018;2024-03-02T14:46:57;2.20;;;1.50;;
4555;SDS011;2290;48.674;9.018;2024-03-02T14:49:24;1.40;;;1.23;;
4555;SDS011;2290;48.674;9.018;2024-03-02T14:51:50;2.07;;;1.37;;
4555;SDS011;2290;48.674;9.018;2024-03-02T14:54:15;1.60;;;1.40;;
4555;SDS011;2290;48.674;9.018;2024-03-02T14:56:41;1.63;;;1.30;;
4555;SDS011;2290;48.674;9.018;2024-03-02T14:59:06;2.23;;;1.50;;
4555;SDS011;2290;48.674;9.018;2024-03-02T15:01:32;1.70;;;1.30;;
4555;SDS011;2290;48.674;9.018;2024-03-02T15:03:57;1.70;;;1.40;;
4555;SDS011;2290;48.674;9.018;2024-03-02T15:06:23;1.70;;;1.40;;
4555;SDS011;2290;48.674;9.018;2024-03-02T15:08:49;2.00;;;1.80;;
4555;SDS011;2290;48.674;9.018;2024-03-02T15:11:14;2.30;;;1.60;;
4555;SDS011;2290;48.674;9.018;2024-03-02T15:13:40;1.90;;;1.57;;
4555;SDS011;2290;48.674;9.018;2024-03-02T15:16:06;1.90;;;1.47;;
4555;SDS011;2290;48.674;9.018;2024-03-02T15:18:32;3.17;;;1.90;;
4555;SDS011;2290;48.674;9.018;2024-03-02T15:20:59;1.90;;;1.60;;
4555;SDS011;2290;48.674;9.018;2024-03-02T15:23:25;1.83;;;1.50;;